createdAt,value
2023-02-26T00:00:21.273Z,100815.69
2023-02-26T00:02:49.353Z,100813.91
2023-02-26T00:05:18.366Z,100828.41
2023-02-26T00:07:46.047Z,100823.25
2023-02-26T00:10:15.767Z,100832.06
2023-02-26T00:12:44.422Z,100833.56
2023-02-26T00:15:14.978Z,100828.97
2023-02-26T00:17:50.003Z,100834.34
2023-02-26T00:20:20.207Z,100841.19
2023-02-26T00:22:48.275Z,100847.31
2023-02-26T00:25:15.802Z,100850.75
2023-02-26T00:27:48.000Z,100854.13
2023-02-26T00:30:20.069Z,100863.38
2023-02-26T00:32:48.059Z,100865.50
2023-02-26T00:35:17.037Z,100860.00
2023-02-26T00:38:06.882Z,100875.97
2023-02-26T00:40:42.138Z,100878.25
2023-02-26T00:43:14.795Z,100877.59
2023-02-26T00:45:48.047Z,100880.09
2023-02-26T00:48:34.913Z,100895.56
2023-02-26T00:51:11.033Z,100886.13
2023-02-26T00:53:48.682Z,100882.03
2023-02-26T00:56:16.317Z,100892.91
2023-02-26T00:58:44.499Z,100902.28
2023-02-26T01:01:12.225Z,100892.63
2023-02-26T01:03:40.280Z,100900.56
2023-02-26T01:06:12.156Z,100897.91
2023-02-26T01:08:48.733Z,100898.13
2023-02-26T01:11:16.667Z,100908.22
2023-02-26T01:13:44.447Z,100905.97
2023-02-26T01:16:18.715Z,100907.78
2023-02-26T01:18:51.602Z,100904.44
2023-02-26T01:21:25.376Z,100914.56
2023-02-26T01:23:54.366Z,100917.72
2023-02-26T01:26:26.509Z,100917.09
2023-02-26T01:28:55.198Z,100912.28
2023-02-26T01:31:35.660Z,100914.22
2023-02-26T01:34:09.500Z,100919.25
2023-02-26T01:36:43.732Z,100927.84
2023-02-26T01:39:20.627Z,100916.56
2023-02-26T01:41:51.497Z,100925.97
2023-02-26T01:44:27.387Z,100925.63
2023-02-26T01:47:11.719Z,100931.13
2023-02-26T01:49:39.781Z,100928.03
2023-02-26T01:52:08.427Z,100929.13
2023-02-26T01:54:39.137Z,100930.94
2023-02-26T01:57:11.745Z,100933.38
2023-02-26T01:59:43.131Z,100941.31
2023-02-26T02:02:12.914Z,100944.22
2023-02-26T02:04:42.033Z,100952.69
2023-02-26T02:07:09.779Z,100947.19
2023-02-26T02:09:38.597Z,100949.44
2023-02-26T02:12:20.941Z,100956.41
2023-02-26T02:15:03.436Z,100968.44
2023-02-26T02:17:39.438Z,100962.53
2023-02-26T02:20:37.656Z,100970.03
2023-02-26T02:23:15.522Z,100974.56
2023-02-26T02:26:16.337Z,100977.28
2023-02-26T02:29:02.479Z,100992.78
2023-02-26T02:31:36.675Z,100990.81
2023-02-26T02:34:08.890Z,100992.75
2023-02-26T02:36:42.479Z,100994.50
2023-02-26T02:39:13.325Z,100988.25
2023-02-26T02:41:47.215Z,100996.03
2023-02-26T02:44:19.265Z,101004.00
2023-02-26T02:46:52.762Z,101007.91
2023-02-26T02:49:25.086Z,101005.00
2023-02-26T02:51:56.194Z,101012.16
2023-02-26T02:54:27.033Z,101009.03
2023-02-26T02:56:57.430Z,101016.19
2023-02-26T02:59:30.478Z,101014.97
2023-02-26T03:02:06.362Z,101019.97
2023-02-26T03:04:33.969Z,101012.66
2023-02-26T03:07:01.437Z,101017.28
2023-02-26T03:09:28.966Z,101023.34
2023-02-26T03:11:56.390Z,101018.75
2023-02-26T03:14:24.482Z,101035.47
2023-02-26T03:17:10.155Z,101028.81
2023-02-26T03:19:45.605Z,101036.97
2023-02-26T03:22:18.119Z,101046.16
2023-02-26T03:24:50.877Z,101057.19
2023-02-26T03:27:24.855Z,101058.59
2023-02-26T03:29:57.080Z,101052.63
2023-02-26T03:32:30.941Z,101051.91
2023-02-26T03:35:05.702Z,101060.44
2023-02-26T03:37:37.427Z,101059.63
2023-02-26T03:40:10.999Z,101076.75
2023-02-26T03:42:43.884Z,101079.03
2023-02-26T03:45:14.386Z,101081.63
2023-02-26T03:47:48.438Z,101097.56
2023-02-26T03:50:18.817Z,101086.50
2023-02-26T03:52:49.812Z,101095.44
2023-02-26T03:55:23.161Z,101107.63
2023-02-26T03:57:50.865Z,101108.56
2023-02-26T04:00:19.865Z,101115.72
2023-02-26T04:03:00.157Z,101113.47
2023-02-26T04:05:30.164Z,101116.25
2023-02-26T04:07:58.870Z,101124.34
2023-02-26T04:10:30.620Z,101129.00
2023-02-26T04:13:00.149Z,101129.19
2023-02-26T04:15:27.667Z,101147.00
2023-02-26T04:17:56.592Z,101143.78
2023-02-26T04:20:24.089Z,101145.78
2023-02-26T04:22:51.926Z,101154.53
2023-02-26T04:25:19.602Z,101150.34
2023-02-26T04:27:47.084Z,101157.69
2023-02-26T04:30:14.663Z,101162.38
2023-02-26T04:32:42.214Z,101152.69
2023-02-26T04:35:11.167Z,101164.84
2023-02-26T04:37:38.721Z,101170.78
2023-02-26T04:40:07.613Z,101169.00
2023-02-26T04:42:35.130Z,101169.91
2023-02-26T04:45:02.665Z,101171.88
2023-02-26T04:47:30.127Z,101173.06
2023-02-26T04:49:57.619Z,101177.50
2023-02-26T04:52:26.695Z,101187.94
2023-02-26T04:54:54.228Z,101188.28
2023-02-26T04:57:22.143Z,101189.88
2023-02-26T04:59:49.621Z,101187.94
2023-02-26T05:02:17.045Z,101194.56
2023-02-26T05:04:44.503Z,101202.13
2023-02-26T05:07:11.959Z,101199.84
2023-02-26T05:09:40.715Z,101208.19
2023-02-26T05:12:08.121Z,101208.75
2023-02-26T05:14:35.576Z,101214.34
2023-02-26T05:17:03.022Z,101215.22
2023-02-26T05:19:30.480Z,101225.28
2023-02-26T05:21:57.925Z,101229.03
2023-02-26T05:24:25.372Z,101225.91
2023-02-26T05:26:54.436Z,101228.13
2023-02-26T05:29:21.864Z,101223.06
2023-02-26T05:31:49.352Z,101231.84
2023-02-26T05:34:16.812Z,101236.38
2023-02-26T05:36:44.260Z,101245.69
2023-02-26T05:39:11.808Z,101242.91
2023-02-26T05:41:39.306Z,101245.25
2023-02-26T05:44:09.191Z,101248.97
2023-02-26T05:46:36.771Z,101253.94
2023-02-26T05:49:04.217Z,101254.16
2023-02-26T05:51:31.725Z,101269.81
2023-02-26T05:53:59.137Z,101268.78
2023-02-26T05:56:26.741Z,101273.84
2023-02-26T05:58:54.312Z,101276.13
2023-02-26T06:01:23.198Z,101283.81
2023-02-26T06:03:50.607Z,101287.69
2023-02-26T06:06:18.555Z,101280.94
2023-02-26T06:08:46.164Z,101287.06
2023-02-26T06:11:13.685Z,101292.41
2023-02-26T06:13:41.514Z,101284.06
2023-02-26T06:16:09.062Z,101289.78
2023-02-26T06:18:37.879Z,101294.84
2023-02-26T06:21:06.026Z,101304.78
2023-02-26T06:23:33.456Z,101309.66
2023-02-26T06:26:00.892Z,101313.16
2023-02-26T06:28:28.417Z,101309.31
2023-02-26T06:30:56.373Z,101309.50
2023-02-26T06:33:24.186Z,101318.44
2023-02-26T06:35:53.275Z,101334.91
2023-02-26T06:38:20.838Z,101329.00
2023-02-26T06:40:48.913Z,101335.13
2023-02-26T06:43:16.340Z,101336.63
2023-02-26T06:45:43.814Z,101342.81
2023-02-26T06:48:11.264Z,101354.13
2023-02-26T06:50:39.508Z,101356.13
2023-02-26T06:53:08.301Z,101359.91
2023-02-26T06:55:36.409Z,101358.81
2023-02-26T06:58:03.939Z,101365.56
2023-02-26T07:00:31.452Z,101365.00
2023-02-26T07:02:59.249Z,101369.72
2023-02-26T07:05:26.778Z,101378.53
2023-02-26T07:07:54.219Z,101382.72
2023-02-26T07:10:24.994Z,101379.22
2023-02-26T07:12:52.726Z,101388.00
2023-02-26T07:15:20.204Z,101389.84
2023-02-26T07:17:47.652Z,101400.56
2023-02-26T07:20:15.172Z,101408.44
2023-02-26T07:22:42.750Z,101409.19
2023-02-26T07:25:11.323Z,101414.81
2023-02-26T07:27:43.384Z,101417.94
2023-02-26T07:30:14.012Z,101416.16
2023-02-26T07:32:41.530Z,101413.03
2023-02-26T07:35:09.764Z,101425.72
2023-02-26T07:37:37.223Z,101430.03
2023-02-26T07:40:05.466Z,101429.88
2023-02-26T07:42:32.933Z,101438.47
2023-02-26T07:45:02.376Z,101433.03
2023-02-26T07:47:30.499Z,101438.22
2023-02-26T07:49:58.377Z,101444.97
2023-02-26T07:52:26.070Z,101448.63
2023-02-26T07:54:53.654Z,101447.56
2023-02-26T07:57:21.439Z,101460.47
2023-02-26T07:59:48.911Z,101453.44
2023-02-26T08:02:17.993Z,101463.91
2023-02-26T08:04:45.441Z,101479.06
2023-02-26T08:07:12.878Z,101471.81
2023-02-26T08:09:40.301Z,101480.06
2023-02-26T08:12:07.809Z,101483.06
2023-02-26T08:14:35.409Z,101481.03
2023-02-26T08:17:02.854Z,101486.13
2023-02-26T08:19:32.525Z,101490.09
2023-02-26T08:21:59.931Z,101494.53
2023-02-26T08:24:27.457Z,101501.69
2023-02-26T08:26:55.010Z,101499.22
2023-02-26T08:29:22.635Z,101518.84
2023-02-26T08:31:50.397Z,101511.50
2023-02-26T08:34:18.485Z,101516.03
2023-02-26T08:36:47.254Z,101512.44
2023-02-26T08:39:14.796Z,101511.88
2023-02-26T08:41:42.304Z,101514.78
2023-02-26T08:44:10.016Z,101513.09
2023-02-26T08:46:38.604Z,101520.09
2023-02-26T08:49:06.218Z,101525.50
2023-02-26T08:51:33.775Z,101526.06
2023-02-26T08:54:02.585Z,101529.13
2023-02-26T08:56:30.046Z,101535.59
2023-02-26T08:58:57.464Z,101524.97
2023-02-26T09:01:25.430Z,101534.03
2023-02-26T09:03:53.099Z,101539.50
2023-02-26T09:06:20.597Z,101541.66
2023-02-26T09:08:49.362Z,101538.53
2023-02-26T09:11:18.171Z,101544.72
2023-02-26T09:13:45.614Z,101547.34
2023-02-26T09:16:13.219Z,101555.69
2023-02-26T09:18:40.639Z,101555.41
2023-02-26T09:21:08.107Z,101548.16
2023-02-26T09:23:35.557Z,101576.63
2023-02-26T09:26:03.073Z,101585.75
2023-02-26T09:28:31.978Z,101578.47
2023-02-26T09:30:59.571Z,101589.75
2023-02-26T09:33:27.155Z,101592.06
2023-02-26T09:35:54.646Z,101598.53
2023-02-26T09:38:22.105Z,101603.72
2023-02-26T09:40:52.159Z,101614.19
2023-02-26T09:43:50.786Z,101616.22
2023-02-26T09:46:31.552Z,101613.91
2023-02-26T09:49:08.254Z,101615.38
2023-02-26T09:51:36.943Z,101614.19
2023-02-26T09:54:14.916Z,101627.34
2023-02-26T09:56:42.873Z,101624.50
2023-02-26T09:59:12.027Z,101612.50
2023-02-26T10:01:46.710Z,101618.66
2023-02-26T10:04:26.661Z,101624.94
2023-02-26T10:07:08.575Z,101647.03
2023-02-26T10:09:51.209Z,101635.16
2023-02-26T10:12:21.085Z,101635.13
2023-02-26T10:15:01.088Z,101643.09
2023-02-26T10:17:34.787Z,101643.16
2023-02-26T10:20:07.171Z,101656.78
2023-02-26T10:22:38.653Z,101658.88
2023-02-26T10:25:13.277Z,101643.84
2023-02-26T10:27:54.364Z,101647.16
2023-02-26T10:30:31.333Z,101669.16
2023-02-26T10:33:07.888Z,101664.50
2023-02-26T10:35:43.143Z,101665.22
2023-02-26T10:38:14.792Z,101657.41
2023-02-26T10:40:45.672Z,101661.97
2023-02-26T10:43:19.452Z,101669.53
2023-02-26T10:46:00.004Z,101670.84
2023-02-26T10:48:42.221Z,101665.50
2023-02-26T10:51:15.210Z,101656.38
2023-02-26T10:53:47.143Z,101672.00
2023-02-26T10:56:19.011Z,101671.63
2023-02-26T10:58:47.003Z,101669.34
2023-02-26T11:01:19.228Z,101674.34
2023-02-26T11:03:51.600Z,101701.63
2023-02-26T11:06:22.933Z,101681.19
2023-02-26T11:08:54.081Z,101688.97
2023-02-26T11:11:40.360Z,101694.81
2023-02-26T11:14:08.772Z,101683.38
2023-02-26T11:16:43.575Z,101687.22
2023-02-26T11:19:15.289Z,101681.22
2023-02-26T11:21:46.119Z,101685.50
2023-02-26T11:24:19.383Z,101694.38
2023-02-26T11:26:49.700Z,101693.03
2023-02-26T11:29:20.388Z,101694.28
2023-02-26T11:31:52.203Z,101706.13
2023-02-26T11:34:23.694Z,101715.59
2023-02-26T11:36:53.409Z,101712.09
2023-02-26T11:39:24.747Z,101709.00
2023-02-26T11:41:56.874Z,101709.34
2023-02-26T11:44:35.969Z,101717.97
2023-02-26T11:47:07.944Z,101724.00
2023-02-26T11:49:35.525Z,101716.03
2023-02-26T11:52:17.690Z,101713.81
2023-02-26T11:54:47.075Z,101718.19
2023-02-26T11:57:18.294Z,101713.41
2023-02-26T11:59:50.135Z,101719.84
2023-02-26T12:02:21.222Z,101717.69
2023-02-26T12:04:50.870Z,101730.34
2023-02-26T12:07:19.926Z,101723.22
2023-02-26T12:09:48.406Z,101727.53
2023-02-26T12:12:35.861Z,101727.78
2023-02-26T12:15:18.610Z,101747.81
2023-02-26T12:18:04.027Z,101736.47
2023-02-26T12:20:38.329Z,101725.44
2023-02-26T12:23:31.220Z,101730.28
2023-02-26T12:26:13.537Z,101722.50
2023-02-26T12:29:07.152Z,101734.47
2023-02-26T12:32:02.821Z,101733.31
2023-02-26T12:34:55.333Z,101746.84
2023-02-26T12:37:36.533Z,101736.22
2023-02-26T12:40:20.725Z,101750.09
2023-02-26T12:43:00.088Z,101741.50
2023-02-26T12:45:42.154Z,101748.25
2023-02-26T12:48:37.151Z,101742.38
2023-02-26T12:51:14.532Z,101739.63
2023-02-26T12:53:54.943Z,101741.97
2023-02-26T12:56:49.953Z,101736.06
2023-02-26T12:59:35.266Z,101730.16
2023-02-26T13:02:29.490Z,101727.25
2023-02-26T13:05:30.611Z,101738.16
2023-02-26T13:08:13.024Z,101750.13
2023-02-26T13:10:55.770Z,101759.72
2023-02-26T13:13:38.873Z,101768.59
2023-02-26T13:16:18.755Z,101763.78
2023-02-26T13:18:54.838Z,101776.06
2023-02-26T13:21:27.338Z,101769.56
2023-02-26T13:24:00.522Z,101769.03
2023-02-26T13:26:30.134Z,101778.88
2023-02-26T13:29:01.617Z,101769.75
2023-02-26T13:31:33.885Z,101775.88
2023-02-26T13:34:10.736Z,101781.00
2023-02-26T13:36:39.645Z,101780.38
2023-02-26T13:39:29.067Z,101760.22
2023-02-26T13:42:02.303Z,101771.16
2023-02-26T13:44:38.247Z,101772.28
2023-02-26T13:47:25.904Z,101773.91
2023-02-26T13:50:05.989Z,101777.63
2023-02-26T13:52:36.886Z,101776.91
2023-02-26T13:55:06.771Z,101778.66
2023-02-26T13:57:48.704Z,101778.00
2023-02-26T14:00:28.138Z,101784.06
2023-02-26T14:02:57.561Z,101783.06
2023-02-26T14:05:53.944Z,101776.06
2023-02-26T14:08:46.927Z,101789.88
2023-02-26T14:11:44.746Z,101792.94
2023-02-26T14:14:24.335Z,101788.72
2023-02-26T14:16:56.032Z,101795.63
2023-02-26T14:19:34.273Z,101801.06
2023-02-26T14:22:15.031Z,101795.81
2023-02-26T14:24:51.733Z,101789.00
2023-02-26T14:27:33.471Z,101799.00
2023-02-26T14:30:06.928Z,101802.72
2023-02-26T14:32:36.082Z,101794.03
2023-02-26T14:35:11.209Z,101807.44
2023-02-26T14:37:41.828Z,101794.84
2023-02-26T14:40:16.011Z,101812.78
2023-02-26T14:42:49.763Z,101818.78
2023-02-26T14:45:30.054Z,101829.13
2023-02-26T14:47:59.013Z,101827.81
2023-02-26T14:50:30.686Z,101824.81
2023-02-26T14:53:24.427Z,101819.63
2023-02-26T14:56:07.419Z,101831.13
2023-02-26T14:58:49.196Z,101829.72
2023-02-26T15:01:31.615Z,101830.69
2023-02-26T15:04:15.702Z,101834.44
2023-02-26T15:07:00.912Z,101825.16
2023-02-26T15:09:38.385Z,101827.34
2023-02-26T15:12:17.416Z,101835.97
2023-02-26T15:15:00.806Z,101835.06
2023-02-26T15:17:40.314Z,101827.53
2023-02-26T15:20:19.145Z,101830.66
2023-02-26T15:23:04.060Z,101827.72
2023-02-26T15:25:35.951Z,101833.88
2023-02-26T15:28:05.276Z,101834.00
2023-02-26T15:30:35.402Z,101826.56
2023-02-26T15:33:06.210Z,101837.19
2023-02-26T15:35:34.957Z,101836.28
2023-02-26T15:38:04.195Z,101844.22
2023-02-26T15:40:34.612Z,101844.41
2023-02-26T15:43:03.902Z,101848.44
2023-02-26T15:45:37.223Z,101852.03
2023-02-26T15:48:07.231Z,101852.81
2023-02-26T15:50:38.444Z,101847.72
2023-02-26T15:53:08.499Z,101852.56
2023-02-26T15:55:39.230Z,101857.06
2023-02-26T15:58:08.559Z,101850.91
2023-02-26T16:00:39.327Z,101857.03
2023-02-26T16:03:06.785Z,101860.19
2023-02-26T16:05:34.230Z,101862.78
2023-02-26T16:08:01.858Z,101854.16
2023-02-26T16:10:35.178Z,101860.00
2023-02-26T16:13:03.251Z,101857.31
2023-02-26T16:15:33.612Z,101862.75
2023-02-26T16:18:06.018Z,101869.78
2023-02-26T16:20:38.932Z,101871.09
2023-02-26T16:23:10.941Z,101867.78
2023-02-26T16:25:41.969Z,101872.56
2023-02-26T16:28:15.889Z,101872.97
2023-02-26T16:30:45.627Z,101869.88
2023-02-26T16:33:17.516Z,101877.44
2023-02-26T16:35:48.354Z,101883.13
2023-02-26T16:38:21.168Z,101892.69
2023-02-26T16:40:58.271Z,101888.97
2023-02-26T16:43:53.043Z,101893.97
2023-02-26T16:46:34.116Z,101893.31
2023-02-26T16:49:05.786Z,101896.72
2023-02-26T16:51:38.128Z,101911.50
2023-02-26T16:54:10.128Z,101915.75
2023-02-26T16:56:41.991Z,101919.34
2023-02-26T16:59:16.124Z,101922.16
2023-02-26T17:01:51.245Z,101930.25
2023-02-26T17:04:22.495Z,101932.66
2023-02-26T17:06:50.221Z,101933.50
2023-02-26T17:09:34.590Z,101933.28
2023-02-26T17:12:13.302Z,101936.25
2023-02-26T17:14:42.932Z,101945.09
2023-02-26T17:17:11.062Z,101941.94
2023-02-26T17:19:39.862Z,101940.75
2023-02-26T17:22:14.285Z,101942.53
2023-02-26T17:24:45.192Z,101955.59
2023-02-26T17:27:17.424Z,101951.56
2023-02-26T17:29:47.773Z,101956.03
2023-02-26T17:32:19.442Z,101968.22
2023-02-26T17:34:48.411Z,101966.34
2023-02-26T17:37:16.514Z,101975.03
2023-02-26T17:39:44.847Z,101970.47
2023-02-26T17:42:13.475Z,101969.44
2023-02-26T17:44:41.294Z,101980.81
2023-02-26T17:47:13.814Z,101979.63
2023-02-26T17:49:41.238Z,101984.03
2023-02-26T17:52:09.977Z,101980.50
2023-02-26T17:54:37.447Z,101980.91
2023-02-26T17:57:05.311Z,101987.56
2023-02-26T17:59:33.112Z,101985.63
2023-02-26T18:02:01.259Z,101998.03
2023-02-26T18:04:29.579Z,101993.03
2023-02-26T18:06:57.159Z,101999.88
2023-02-26T18:09:25.963Z,102000.84
2023-02-26T18:11:53.365Z,102004.59
2023-02-26T18:14:20.815Z,102006.88
2023-02-26T18:16:48.306Z,102014.25
2023-02-26T18:19:16.050Z,102010.50
2023-02-26T18:21:43.537Z,102019.50
2023-02-26T18:24:11.271Z,102021.72
2023-02-26T18:26:40.112Z,102011.38
2023-02-26T18:29:07.534Z,102021.34
2023-02-26T18:31:35.832Z,102020.41
2023-02-26T18:34:04.169Z,102024.13
2023-02-26T18:36:37.449Z,102025.00
2023-02-26T18:39:07.422Z,102019.38
2023-02-26T18:41:35.705Z,102015.69
2023-02-26T18:44:04.617Z,102021.78
2023-02-26T18:46:34.823Z,102038.28
2023-02-26T18:49:02.382Z,102037.59
2023-02-26T18:51:30.247Z,102027.66
2023-02-26T18:53:57.638Z,102037.72
2023-02-26T18:56:25.252Z,102044.31
2023-02-26T18:58:52.709Z,102048.19
2023-02-26T19:01:21.660Z,102055.22
2023-02-26T19:03:49.135Z,102053.84
2023-02-26T19:06:16.687Z,102063.44
2023-02-26T19:08:44.116Z,102058.22
2023-02-26T19:11:11.745Z,102061.78
2023-02-26T19:13:39.262Z,102062.09
2023-02-26T19:16:07.199Z,102067.06
2023-02-26T19:18:35.959Z,102057.28
2023-02-26T19:21:04.730Z,102074.63
2023-02-26T19:23:32.222Z,102070.69
2023-02-26T19:25:59.659Z,102079.44
2023-02-26T19:28:27.083Z,102072.72
2023-02-26T19:30:55.097Z,102082.66
2023-02-26T19:33:23.913Z,102077.25
2023-02-26T19:35:53.101Z,102078.13
2023-02-26T19:38:20.556Z,102075.41
2023-02-26T19:40:48.448Z,102076.59
2023-02-26T19:43:15.869Z,102080.59
2023-02-26T19:45:43.336Z,102080.38
2023-02-26T19:48:10.807Z,102073.66
2023-02-26T19:50:38.246Z,102081.34
2023-02-26T19:53:07.229Z,102088.06
2023-02-26T19:55:34.736Z,102097.09
2023-02-26T19:58:02.220Z,102093.91
2023-02-26T20:00:29.751Z,102094.94
2023-02-26T20:02:57.217Z,102095.63
2023-02-26T20:05:24.796Z,102097.47
2023-02-26T20:07:52.346Z,102102.94
2023-02-26T20:10:23.441Z,102113.13
2023-02-26T20:12:50.919Z,102109.75
2023-02-26T20:15:18.382Z,102117.69
2023-02-26T20:17:45.796Z,102112.56
2023-02-26T20:20:13.850Z,102121.41
2023-02-26T20:22:41.372Z,102114.38
2023-02-26T20:25:09.969Z,102119.81
2023-02-26T20:27:38.965Z,102126.19
2023-02-26T20:30:07.781Z,102132.91
2023-02-26T20:32:35.367Z,102132.03
2023-02-26T20:35:02.937Z,102130.72
2023-02-26T20:37:30.351Z,102138.03
2023-02-26T20:39:57.802Z,102143.25
2023-02-26T20:42:25.436Z,102148.53
2023-02-26T20:44:54.409Z,102145.44
2023-02-26T20:47:21.821Z,102147.44
2023-02-26T20:49:49.452Z,102154.31
2023-02-26T20:52:16.998Z,102154.00
2023-02-26T20:54:44.775Z,102146.19
2023-02-26T20:57:13.073Z,102150.22
2023-02-26T20:59:40.487Z,102145.97
2023-02-26T21:02:12.397Z,102158.53
2023-02-26T21:04:39.869Z,102157.59
2023-02-26T21:07:21.604Z,102159.50
2023-02-26T21:09:49.590Z,102156.44
2023-02-26T21:12:17.431Z,102160.28
2023-02-26T21:14:45.542Z,102156.44
2023-02-26T21:17:14.332Z,102167.88
2023-02-26T21:19:41.830Z,102162.44
2023-02-26T21:22:09.385Z,102175.00
2023-02-26T21:24:36.873Z,102171.56
2023-02-26T21:27:04.543Z,102166.63
2023-02-26T21:29:32.112Z,102174.81
2023-02-26T21:32:03.404Z,102180.63
2023-02-26T21:34:34.833Z,102182.09
2023-02-26T21:37:03.341Z,102185.28
2023-02-26T21:39:32.308Z,102177.97
2023-02-26T21:42:00.578Z,102183.66
2023-02-26T21:44:28.630Z,102185.28
2023-02-26T21:46:57.322Z,102184.47
2023-02-26T21:49:24.990Z,102184.28
2023-02-26T21:51:54.234Z,102184.06
2023-02-26T21:54:21.998Z,102187.22
2023-02-26T21:56:49.559Z,102183.13
2023-02-26T21:59:16.998Z,102186.81
2023-02-26T22:01:45.490Z,102202.41
2023-02-26T22:04:13.275Z,102196.53
2023-02-26T22:06:40.711Z,102194.97
2023-02-26T22:09:09.583Z,102186.03
2023-02-26T22:11:37.380Z,102190.13
2023-02-26T22:14:04.931Z,102193.78
2023-02-26T22:16:32.554Z,102193.69
2023-02-26T22:19:00.049Z,102195.41
2023-02-26T22:21:27.897Z,102190.06
2023-02-26T22:23:55.681Z,102197.97
2023-02-26T22:26:24.500Z,102202.28
2023-02-26T22:28:52.183Z,102204.22
2023-02-26T22:31:19.853Z,102205.72
2023-02-26T22:33:49.357Z,102204.22
2023-02-26T22:36:17.082Z,102210.31
2023-02-26T22:38:44.561Z,102214.66
2023-02-26T22:41:12.020Z,102219.41
2023-02-26T22:43:40.815Z,102222.41
2023-02-26T22:46:08.814Z,102224.56
2023-02-26T22:48:36.331Z,102227.34
2023-02-26T22:51:03.857Z,102229.94
2023-02-26T22:53:31.926Z,102235.31
2023-02-26T22:55:59.874Z,102234.91
2023-02-26T22:58:27.510Z,102239.22
2023-02-26T23:01:01.587Z,102242.75
2023-02-26T23:03:29.855Z,102242.47
2023-02-26T23:05:58.533Z,102235.75
2023-02-26T23:08:26.401Z,102247.22
2023-02-26T23:10:55.148Z,102244.00
2023-02-26T23:13:22.767Z,102249.09
2023-02-26T23:15:50.234Z,102245.16
2023-02-26T23:18:19.061Z,102243.38
2023-02-26T23:20:48.223Z,102242.22
2023-02-26T23:23:16.124Z,102253.19
2023-02-26T23:25:43.948Z,102244.00
2023-02-26T23:28:11.830Z,102247.00
2023-02-26T23:30:39.456Z,102250.44
2023-02-26T23:33:08.091Z,102245.41
2023-02-26T23:35:37.146Z,102252.06
2023-02-26T23:38:06.005Z,102249.75
2023-02-26T23:40:34.399Z,102249.22
2023-02-26T23:43:01.921Z,102255.00
2023-02-26T23:45:29.386Z,102255.25
2023-02-26T23:47:56.852Z,102247.94
2023-02-26T23:50:24.365Z,102252.25
2023-02-26T23:52:53.262Z,102253.56
2023-02-26T23:55:24.418Z,102254.75
2023-02-26T23:57:51.866Z,102250.56
